Terminal Aerodrome Forecast
Issued by NWS Greer, SC

Home | Current Version | Previous Version | Text Only | Print | Product List | Glossary On
Versions: 1 2 3 4 5 6 7 8 9 10 11 12 13 14 15 16 17 18 19 20 21 22
000
FTUS42 KGSP 252357 CCA
TAFGSP
TAF COR
KGSP 252357Z 2600/2624 20007KT P6SM BKN100 BKN200
     FM260800 23004KT P6SM BKN025
     FM261300 24005KT P6SM BKN060
     FM261900 32009G16KT P6SM SCT060=

USA.gov is the U.S. government's official web portal to all federal, state and local government web resources and services.